Latest Weather Observations for Kowen Forest

IDN60901

Issued at 7:21 pm EDT Saturday 10 December 2022 (issued every 10 minutes, with the page automatically refreshed every 10 minutes)

About weather observations | Map of Canberra area stations | Latest observations for Canberra area | Other Formats
Station Details ID: 250071 Name: KOWEN FOREST (PCS) Lat: -35.31 Lon: 149.32 Height: 720.0 m

Portable automatic weather stations (PAWS) are operated by other organisations, such as Fire and Emergency Services, and are included here by agreement. Portable stations may be deployed to a location for a short period and their location may be subject to change without notice. Wind observations from these stations are provided from heights of either three (3) or ten (10) metres above ground level (AGL).

Data from the previous 72 hours. | See also: Recent months for locations in Aust Capital Territory
Date/Time
EDT
Temp
°C
App
Temp
°C
Dew
Point
°C
Rel
Hum
%
Delta-T
°C
Wind Press
QNH
hPa
Press
MSL
hPa
Rain since
9am
mm
Dir  Spd
km/h
Gust
km/h
Spd
kts
Gust
kts
10/07:10pm 19.5 15.6 5.5 40 7.1 NE 15 17 8 9 - - 0.0
10/07:00pm 19.8 15.8 4.9 37 7.5 NNE 15 19 8 10 - - 0.0
10/06:50pm 20.1 16.6 5.4 38 7.5 NE 13 15 7 8 - - 0.0
10/06:40pm 20.3 16.8 5.5 38 7.6 NNE 13 17 7 9 - - 0.0
10/06:30pm 20.4 16.6 5.7 38 7.6 NE 15 17 8 9 - - 0.0
10/06:20pm 20.6 17.2 5.7 37 7.7 NNE 13 17 7 9 - - 0.0
10/06:10pm 20.7 16.8 5.3 36 7.9 NNE 15 19 8 10 - - 0.0
10/06:00pm 21.0 17.0 4.8 34 8.2 NE 15 17 8 9 - - 0.0
10/05:50pm 20.9 17.4 5.5 36 7.9 NE 13 13 7 7 - - 0.0
10/05:40pm 21.0 17.7 4.3 33 8.4 N 11 17 6 9 - - 0.0
10/05:30pm 21.0 17.2 4.1 33 8.5 N 13 17 7 9 - - 0.0
10/05:20pm 21.3 17.2 4.2 32 8.6 NNE 15 19 8 10 - - 0.0
10/05:10pm 21.3 17.6 4.7 33 8.4 NE 13 20 7 11 - - 0.0
10/05:00pm 21.9 19.1 5.3 34 8.6 N 9 11 5 6 - - 0.0
10/04:50pm 21.5 18.3 5.0 34 8.4 NE 11 15 6 8 - - 0.0
10/04:40pm 21.8 18.4 4.2 31 8.9 N 11 17 6 9 - - 0.0
10/04:30pm 21.6 18.4 5.1 34 8.5 N 11 15 6 8 - - 0.0
10/04:20pm 21.1 17.7 3.8 32 8.6 N 11 19 6 10 - - 0.0
10/04:10pm 20.4 16.8 4.9 36 7.9 N 13 20 7 11 - - 0.0
10/04:00pm 20.9 17.6 4.8 34 8.2 NNE 11 19 6 10 - - 0.0
10/03:50pm 21.2 17.9 6.3 38 7.8 NE 13 15 7 8 - - 0.0
10/03:40pm 21.1 16.3 4.7 34 8.3 NNE 19 24 10 13 - - 0.0
10/03:30pm 21.7 17.6 6.2 36 8.1 ENE 17 22 9 12 - - 0.0
10/03:20pm 22.3 20.2 5.6 33 8.7 SE 6 13 3 7 - - 0.0
10/03:10pm 21.4 18.5 4.5 33 8.6 ENE 9 11 5 6 - - 0.0
10/03:00pm 21.4 17.5 5.2 34 8.3 N 15 22 8 12 - - 0.0
10/02:50pm 22.2 19.8 4.5 31 9.0 SSE 6 11 3 6 - - 0.0
10/02:40pm 21.6 19.3 4.6 33 8.6 WSW 6 7 3 4 - - 0.0
10/02:30pm 20.8 17.8 4.0 33 8.4 NNE 9 15 5 8 - - 0.0
10/02:20pm 21.1 18.2 6.5 38 7.7 NNE 11 17 6 9 - - 0.0
10/02:10pm 21.5 18.5 3.9 31 8.8 WNW 9 17 5 9 - - 0.0
10/02:00pm 20.6 17.9 5.8 38 7.6 W 9 15 5 8 - - 0.0
10/01:50pm 20.5 17.6 4.6 35 8.0 N 9 15 5 8 - - 0.0
10/01:40pm 18.9 15.5 5.8 42 6.7 ENE 13 15 7 8 - - 0.0
10/01:30pm 19.3 16.1 4.9 38 7.2 NE 11 17 6 9 - - 0.0
10/01:20pm 19.4 17.1 5.5 40 7.1 E 7 13 4 7 - - 0.0
10/01:10pm 20.0 17.1 4.5 36 7.8 SE 9 13 5 7 - - 0.0
10/01:00pm 19.6 17.1 4.6 37 7.5 ENE 7 13 4 7 - - 0.0
10/12:50pm 19.0 16.7 4.9 39 7.1 ENE 6 11 3 6 - - 0.0
10/12:40pm 19.2 16.8 5.3 40 7.0 SSW 7 13 4 7 - - 0.0
10/12:30pm 18.9 16.6 4.6 39 7.1 E 6 15 3 8 - - 0.0
10/12:20pm 18.9 16.0 4.4 38 7.2 NNE 9 15 5 8 - - 0.0
10/12:10pm 18.1 16.1 4.6 41 6.7 SE 4 9 2 5 - - 0.0
10/12:00pm 18.0 14.7 4.7 41 6.6 S 11 15 6 8 - - 0.0
10/11:50am 18.6 16.3 5.0 40 6.8 SSE 6 9 3 5 - - 0.0
10/11:40am 18.3 15.5 5.2 42 6.6 ENE 9 13 5 7 - - 0.0
10/11:30am 17.6 15.3 5.5 45 6.1 WNW 7 9 4 5 - - 0.0
10/11:20am 17.5 14.1 4.1 41 6.6 NNE 11 17 6 9 - - 0.0
10/11:10am 17.1 14.2 4.4 43 6.2 NW 9 15 5 8 - - 0.0
10/11:00am 16.6 14.0 4.3 44 6.0 NNE 7 11 4 6 - - 0.0
10/10:50am 16.8 13.9 4.9 45 5.9 N 9 13 5 7 - - 0.0
10/10:40am 16.8 14.4 5.4 47 5.7 N 7 17 4 9 - - 0.0
10/10:30am 16.2 13.3 4.6 46 5.7 NNE 9 15 5 8 - - 0.0
10/10:20am 16.2 13.3 4.4 45 5.8 NE 9 15 5 8 - - 0.0
10/10:10am 15.9 13.3 4.2 45 5.7 N 7 15 4 8 - - 0.0
10/10:00am 16.2 13.2 4.3 45 5.8 NE 9 15 5 8 - - 0.0
10/09:50am 15.5 13.0 3.8 45 5.6 NE 6 9 3 5 - - 0.0
10/09:40am 14.8 11.7 3.7 47 5.3 NNE 9 15 5 8 - - 0.0
10/09:30am 14.4 12.0 4.2 50 4.9 N 6 9 3 5 - - 0.0
10/09:20am 14.6 11.7 4.6 51 4.8 ENE 9 11 5 6 - - 0.0
10/09:10am 14.7 12.4 4.9 52 4.8 E 6 9 3 5 - - 0.0
10/09:00am 14.3 11.7 4.1 50 4.9 NE 7 9 4 5 - - 0.0
10/08:50am 13.8 11.2 4.1 52 4.6 ESE 7 9 4 5 - - 0.0
10/08:40am 13.5 10.8 3.6 51 4.6 E 7 13 4 7 - - 0.0
10/08:30am 13.6 10.9 3.9 52 4.6 ENE 7 13 4 7 - - 0.0
10/08:20am 13.0 10.4 4.1 54 4.2 ENE 7 11 4 6 - - 0.0
10/08:10am 12.7 10.2 4.6 58 3.9 ENE 7 13 4 7 - - 0.0
10/08:00am 12.2 9.7 4.5 59 3.6 ENE 7 9 4 5 - - 0.0
10/07:50am 11.9 9.3 4.2 59 3.6 ENE 7 11 4 6 - - 0.0
10/07:40am 11.6 8.6 4.0 59 3.5 ENE 9 11 5 6 - - 0.0
10/07:30am 11.1 8.8 5.0 66 2.9 SSE 6 7 3 4 - - 0.0
10/07:20am 10.6 8.5 5.6 71 2.4 S 6 6 3 3 - - 0.0
10/07:10am 10.0 7.9 5.9 75 2.0 SSE 6 7 3 4 - - 0.0
10/07:00am 9.5 7.2 5.8 78 1.8 SE 7 7 4 4 - - 0.0
10/06:50am 8.8 6.6 5.3 79 1.6 SSE 6 9 3 5 - - 0.0
10/06:40am 7.8 6.1 5.7 86 1.0 S 4 6 2 3 - - 0.0
10/06:30am 7.4 5.6 5.2 86 1.0 SSE 4 7 2 4 - - 0.0
10/06:20am 6.9 5.0 4.9 87 0.9 SSE 4 6 2 3 - - 0.0
10/06:10am 7.1 4.6 4.8 85 1.1 ESE 7 7 4 4 - - 0.0
10/06:00am 7.5 5.0 4.9 83 1.2 - 7 7 4 4 - - 0.0
10/05:50am 7.8 5.4 5.1 83 1.3 E 7 7 4 4 - - 0.0
10/05:40am 7.9 5.7 5.1 82 1.3 ESE 6 7 3 4 - - 0.0
10/05:30am 8.0 5.8 5.3 83 1.3 ESE 6 6 3 3 - - 0.0
10/05:20am 8.0 5.8 5.4 84 1.2 ESE 6 7 3 4 - - 0.0
10/05:10am 8.1 5.9 5.5 84 1.2 ESE 6 7 3 4 - - 0.0
10/05:00am 8.1 5.8 5.6 84 1.2 SE 7 7 4 4 - - 0.0
10/04:50am 7.9 5.6 5.5 85 1.1 SE 7 7 4 4 - - 0.0
10/04:40am 7.8 5.7 5.6 86 1.0 E 6 7 3 4 - - 0.0
10/04:30am 7.5 5.8 5.8 89 0.8 E 4 6 2 3 - - 0.0
10/04:20am 7.5 5.7 5.4 86 1.0 E 4 6 2 3 - - 0.0
10/04:10am 7.4 5.2 5.2 86 1.0 E 6 6 3 3 - - 0.0
10/04:00am 7.7 5.8 5.0 83 1.2 E 4 4 2 2 - - 0.0
10/03:50am 8.1 6.2 5.0 81 1.4 SE 4 6 2 3 - - 0.0
10/03:40am 8.4 6.1 5.0 79 1.6 ESE 6 7 3 4 - - 0.0
10/03:30am 8.7 6.8 5.0 77 1.7 SSE 4 6 2 3 - - 0.0
10/03:20am 8.9 6.6 5.0 76 1.8 SE 6 7 3 4 - - 0.0
10/03:10am 9.0 6.5 4.7 74 2.0 ESE 7 11 4 6 - - 0.0
10/03:00am 9.0 6.2 5.0 76 1.9 SE 9 13 5 7 - - 0.0
10/02:50am 9.1 6.4 5.5 78 1.7 SE 9 11 5 6 - - 0.0
10/02:40am 9.1 6.3 5.3 77 1.8 SE 9 11 5 6 - - 0.0
10/02:30am 9.1 6.4 5.4 77 1.7 ESE 9 11 5 6 - - 0.0
10/02:20am 9.1 7.0 5.8 80 1.6 ESE 6 9 3 5 - - 0.0
10/02:10am 9.1 6.8 5.7 79 1.6 ESE 7 9 4 5 - - 0.0
10/02:00am 9.2 6.5 5.8 79 1.6 ESE 9 11 5 6 - - 0.0
10/01:50am 9.3 7.1 6.0 80 1.6 SE 7 13 4 7 - - 0.0
10/01:40am 9.4 7.2 6.0 79 1.6 ESE 7 9 4 5 - - 0.0
10/01:30am 9.3 6.7 6.0 80 1.6 ENE 9 13 5 7 - - 0.0
10/01:20am 9.3 6.4 6.5 83 1.4 ENE 11 15 6 8 - - 0.0
10/01:10am 9.4 6.5 6.4 81 1.5 ENE 11 15 6 8 - - 0.0
10/01:00am 9.4 6.9 6.5 82 1.4 ENE 9 11 5 6 - - 0.0
10/12:50am 9.5 7.4 6.6 82 1.4 E 7 11 4 6 - - 0.0
10/12:40am 9.5 7.0 6.5 81 1.5 E 9 11 5 6 - - 0.0
10/12:30am 9.5 6.6 6.4 81 1.5 E 11 13 6 7 - - 0.0
10/12:20am 9.6 6.3 6.6 81 1.5 ENE 13 17 7 9 - - 0.0
10/12:10am 9.6 6.3 6.6 81 1.5 ENE 13 19 7 10 - - 0.0
10/12:00am 9.6 6.7 6.6 81 1.5 ENE 11 13 6 7 - - 0.0
 
Date/Time
EDT
Temp
°C
App
Temp
°C
Dew
Point
°C
Rel
Hum
%
Delta-T
°C
Wind Press
QNH
hPa
Press
MSL
hPa
Rain since
9am
mm
Dir  Spd
km/h
Gust
km/h
Spd
kts
Gust
kts
09/11:50pm 9.7 6.8 6.5 80 1.6 ENE 11 15 6 8 - - 0.0
09/11:40pm 9.7 6.4 6.4 80 1.6 E 13 17 7 9 - - 0.0
09/11:30pm 9.7 6.0 6.3 79 1.6 E 15 19 8 10 - - 0.0
09/11:20pm 9.7 6.0 6.4 80 1.6 E 15 17 8 9 - - 0.0
09/11:10pm 9.7 6.4 6.4 80 1.6 ENE 13 19 7 10 - - 0.0
09/11:00pm 9.7 6.8 6.4 80 1.6 E 11 19 6 10 - - 0.0
09/10:50pm 9.7 6.4 6.6 81 1.5 E 13 17 7 9 - - 0.0
09/10:40pm 9.6 6.0 6.6 81 1.5 ENE 15 19 8 10 - - 0.0
09/10:30pm 9.6 6.0 6.7 82 1.4 ENE 15 19 8 10 - - 0.0
09/10:20pm 9.6 6.0 6.8 83 1.4 ENE 15 20 8 11 - - 0.0
09/10:10pm 9.7 5.8 6.9 83 1.4 ENE 17 19 9 10 - - 0.0
09/10:00pm 9.8 5.9 7.0 83 1.4 ENE 17 19 9 10 - - 0.0
09/09:50pm 9.9 6.0 7.0 82 1.4 ENE 17 20 9 11 - - 0.0
09/09:40pm 10.0 6.5 7.0 81 1.5 ENE 15 19 8 10 - - 0.0
09/09:30pm 10.1 6.2 7.0 81 1.5 ENE 17 22 9 12 - - 0.0
09/09:20pm 10.2 6.7 7.1 81 1.5 ENE 15 20 8 11 - - 0.0
09/09:10pm 10.4 6.5 6.9 79 1.7 E 17 20 9 11 - - 0.0
09/09:00pm 10.5 6.6 6.9 78 1.8 ENE 17 19 9 10 - - 0.0
09/08:50pm 10.6 6.6 6.8 77 1.9 ENE 17 19 9 10 - - 0.0
09/08:40pm 10.7 6.1 6.7 76 2.0 ENE 20 24 11 13 - - 0.0
09/08:30pm 10.9 6.9 6.6 75 2.1 ENE 17 24 9 13 - - 0.0
09/08:20pm 11.2 6.6 6.7 74 2.2 ENE 20 24 11 13 - - 0.0
09/08:10pm 11.7 7.3 6.6 71 2.5 ENE 19 22 10 12 - - 0.0
09/08:00pm 12.0 7.6 6.6 69 2.7 E 19 22 10 12 - - 0.0
09/07:50pm 12.4 8.0 6.5 67 2.9 E 19 24 10 13 - - 0.0
09/07:40pm 12.7 8.6 6.4 65 3.1 E 17 20 9 11 - - 0.0
09/07:30pm 13.0 8.6 6.4 64 3.3 E 19 22 10 12 - - 0.0
09/07:20pm 13.3 8.9 6.5 63 3.4 E 19 20 10 11 - - 0.0
09/07:10pm 13.7 9.1 6.5 62 3.6 ENE 20 24 11 13 - - 0.0
09/07:00pm 14.1 9.0 6.2 59 3.9 ENE 22 28 12 15 - - 0.0
09/06:50pm 14.5 8.6 5.7 55 4.4 ENE 26 28 14 15 - - 0.0
09/06:40pm 15.2 10.0 5.5 52 4.8 ENE 22 28 12 15 - - 0.0
09/06:30pm 16.3 12.1 5.7 49 5.3 NE 17 24 9 13 - - 0.0
09/06:20pm 17.5 14.7 3.4 39 6.8 NE 7 11 4 6 - - 0.0
09/06:10pm 17.8 15.0 3.1 37 7.1 NW 7 11 4 6 - - 0.0
09/06:00pm 18.2 14.5 2.5 35 7.5 NW 11 11 6 6 - - 0.0
09/05:50pm 18.5 15.2 2.6 34 7.6 NW 9 13 5 7 - - 0.0
09/05:40pm 17.9 14.0 3.3 37 7.0 WNW 13 17 7 9 - - 0.0
09/05:30pm 18.1 14.1 2.8 36 7.3 WNW 13 15 7 8 - - 0.0
09/05:20pm 19.0 15.5 3.6 36 7.5 W 11 17 6 9 - - 0.0
09/05:10pm 20.9 17.9 1.7 28 9.2 N 7 9 4 5 - - 0.0
09/05:00pm 21.1 18.2 1.6 27 9.3 NE 6 11 3 6 - - 0.0
09/04:50pm 21.2 18.1 1.3 26 9.5 SSE 7 11 4 6 - - 0.0
09/04:40pm 21.2 18.1 0.1 24 9.8 SE 6 11 3 6 - - 0.0
09/04:30pm 20.5 17.8 2.7 30 8.7 SE 6 9 3 5 - - 0.0
09/04:20pm 19.5 15.8 0.0 27 8.9 S 9 13 5 7 - - 0.0
09/04:10pm 18.9 15.7 0.7 29 8.4 ESE 7 15 4 8 - - 0.0
09/04:00pm 18.9 15.7 0.7 29 8.4 SSE 7 11 4 6 - - 0.0
09/03:50pm 20.0 16.3 2.6 31 8.4 S 11 17 6 9 - - 0.0
09/03:40pm 21.1 18.6 1.5 27 9.4 S 4 7 2 4 - - 0.0
09/03:30pm 20.6 17.9 0.4 26 9.4 SSW 4 9 2 5 - - 0.0
09/03:20pm 19.9 15.7 -0.6 25 9.3 SW 11 22 6 12 - - 0.0
09/03:10pm 19.9 15.6 0.9 28 8.9 W 13 19 7 10 - - 0.0
09/03:00pm 20.5 17.3 0.9 27 9.2 NW 7 17 4 9 - - 0.0
09/02:50pm 20.0 16.2 -0.9 24 9.4 SW 9 13 5 7 - - 0.0
09/02:40pm 19.8 15.7 -0.2 26 9.1 S 11 19 6 10 - - 0.0
09/02:30pm 19.8 16.8 0.5 27 8.9 N 6 11 3 6 - - 0.0
09/02:20pm 19.0 15.4 0.5 29 8.5 NNW 9 13 5 7 - - 0.0
09/02:10pm 19.1 14.8 -1.4 25 9.1 S 11 19 6 10 - - 0.0
09/02:00pm 19.1 14.5 -1.1 25 9.0 S 13 20 7 11 - - 0.0
09/01:50pm 19.3 15.4 -1.4 24 9.2 SSW 9 13 5 7 - - 0.0
09/01:40pm 18.9 15.4 -3.0 22 9.4 SSW 6 11 3 6 - - 0.0
09/01:30pm 18.8 15.2 -2.3 24 9.2 SSW 7 13 4 7 - - 0.0
09/01:20pm 18.4 14.2 -1.1 26 8.6 SSW 11 17 6 9 - - 0.0
09/01:10pm 17.7 14.3 -1.9 26 8.5 N 6 13 3 7 - - 0.0
09/01:00pm 17.9 14.3 -2.1 25 8.7 S 7 13 4 7 - - 0.0
09/12:50pm 18.2 13.5 -1.8 25 8.7 S 13 17 7 9 - - 0.0
09/12:40pm 17.5 14.4 0.2 31 7.8 N 6 7 3 4 - - 0.0
09/12:30pm 17.1 13.8 0.0 31 7.7 WSW 7 11 4 6 - - 0.0
09/12:20pm 16.7 12.8 1.0 34 7.2 W 11 15 6 8 - - 0.0
09/12:10pm 16.5 12.1 0.3 33 7.3 WSW 13 17 7 9 - - 0.0
09/12:00pm 16.6 13.0 0.8 34 7.2 WSW 9 15 5 8 - - 0.0
09/11:50am 15.8 12.6 0.8 36 6.8 SE 7 9 4 5 - - 0.0
09/11:40am 15.6 12.4 0.7 36 6.7 W 7 11 4 6 - - 0.0
09/11:30am 15.4 11.8 0.6 36 6.6 NW 9 13 5 7 - - 0.0
09/11:20am 15.2 11.9 0.2 36 6.6 NW 7 15 4 8 - - 0.0
09/11:10am 15.0 11.5 1.1 39 6.3 NNW 9 13 5 7 - - 0.0
09/11:00am 14.6 11.1 1.2 40 6.0 W 9 15 5 8 - - 0.0
09/10:50am 14.7 11.7 0.6 38 6.3 ESE 6 11 3 6 - - 0.0
09/10:40am 14.4 11.2 0.7 39 6.1 ESE 7 11 4 6 - - 0.0
09/10:30am 14.4 11.4 0.7 39 6.1 SSW 6 11 3 6 - - 0.0
09/10:20am 14.0 10.9 0.1 38 6.1 SSW 6 7 3 4 - - 0.0
09/10:10am 13.7 10.4 0.2 39 5.9 SSE 7 13 4 7 - - 0.0
09/10:00am 13.5 9.8 0.2 40 5.8 S 9 15 5 8 - - 0.0
09/09:50am 13.0 9.4 0.6 42 5.4 SSE 9 15 5 8 - - 0.0
09/09:40am 12.7 9.0 -0.1 41 5.5 SSW 9 13 5 7 - - 0.0
09/09:30am 12.8 9.1 0.2 42 5.5 S 9 15 5 8 - - 0.0
09/09:20am 12.0 8.0 0.6 45 5.0 ESE 11 13 6 7 - - 0.0
09/09:10am 12.1 8.9 1.0 46 4.9 SE 7 11 4 6 - - 0.0
09/09:00am 11.3 8.0 -0.1 45 4.8 SSE 7 11 4 6 - - 0.0
09/08:50am 10.8 7.2 0.9 50 4.3 SSE 9 13 5 7 - - 0.0
09/08:40am 10.3 6.2 -0.1 48 4.4 SSE 11 15 6 8 - - 0.0
09/08:30am 9.7 5.2 -0.5 49 4.2 SSE 13 17 7 9 - - 0.0
09/08:20am 9.4 4.5 -0.2 51 4.0 SSE 15 17 8 9 - - 0.0
09/08:10am 9.3 5.2 -0.3 51 4.0 SSE 11 13 6 7 - - 0.0
09/08:00am 8.9 4.4 -0.5 51 3.9 SSE 13 13 7 7 - - 0.0
09/07:50am 8.6 4.5 0.0 54 3.6 SSE 11 15 6 8 - - 0.0
09/07:40am 8.4 5.2 0.9 59 3.2 SSE 7 11 4 6 - - 0.0
09/07:30am 7.5 4.1 1.7 66 2.5 SE 9 15 5 8 - - 0.0
09/07:20am 7.0 3.9 1.3 67 2.4 ESE 7 11 4 6 - - 0.0
09/07:10am 6.2 3.2 1.7 73 1.9 ESE 7 9 4 5 - - 0.0
09/07:00am 4.7 2.7 2.2 84 1.1 NE 2 4 1 2 - - 0.0
09/06:50am 2.8 0.3 1.4 90 0.6 N 4 4 2 2 - - 0.0
09/06:40am 1.4 -1.3 0.4 93 0.4 N 4 4 2 2 - - 0.0
09/06:30am 0.5 -1.9 -0.2 95 0.3 NNE 2 4 1 2 - - 0.0
09/06:20am -1.0 -4.0 -1.7 95 0.2 N 4 4 2 2 - - 0.0
09/06:10am -1.5 -4.2 -2.2 95 0.2 N 2 4 1 2 - - 0.0
09/06:00am -1.4 -4.4 -2.1 95 0.2 NNE 4 6 2 3 - - 0.0
09/05:50am -1.1 -3.7 -1.7 96 0.2 NNW 2 2 1 1 - - 0.0
09/05:40am -0.8 -3.7 -1.3 96 0.1 ENE 4 4 2 2 - - 0.0
09/05:30am -1.0 -4.0 -1.6 96 0.2 NE 4 4 2 2 - - 0.0
09/05:20am -0.9 -3.9 -1.5 96 0.2 NNE 4 4 2 2 - - 0.0
09/05:10am -0.9 -3.5 -1.5 96 0.2 N 2 4 1 2 - - 0.0
09/05:00am -1.0 -4.0 -1.6 96 0.2 N 4 4 2 2 - - 0.0
09/04:50am -1.2 -4.2 -1.8 96 0.2 NNE 4 6 2 3 - - 0.0
09/04:40am -1.0 -4.0 -1.7 95 0.2 NE 4 6 2 3 - - 0.0
09/04:30am -0.9 -3.9 -1.7 94 0.2 NE 4 6 2 3 - - 0.0
09/04:20am -0.9 -3.9 -1.7 94 0.2 NE 4 6 2 3 - - 0.0
09/04:10am -0.7 -4.0 -1.4 95 0.2 NNE 6 6 3 3 - - 0.0
09/04:00am -0.5 -3.8 -1.4 94 0.3 ENE 6 6 3 3 - - 0.0
09/03:50am -0.5 -3.5 -1.5 93 0.3 NE 4 6 2 3 - - 0.0
09/03:40am 0.0 -3.3 -1.2 92 0.4 NE 6 6 3 3 - - 0.0
09/03:30am -0.2 -3.5 -1.2 93 0.4 NE 6 7 3 4 - - 0.0
09/03:20am 0.4 -2.1 -1.1 90 0.6 NE 2 4 1 2 - - 0.0
09/03:10am 0.1 -2.8 -0.8 94 0.3 NE 4 6 2 3 - - 0.0
09/03:00am 0.3 -2.9 -0.6 94 0.4 NNE 6 6 3 3 - - 0.0
09/02:50am 0.3 -2.9 -0.8 92 0.4 NNE 6 6 3 3 - - 0.0
09/02:40am 0.4 -2.8 -0.5 94 0.3 NE 6 6 3 3 - - 0.0
09/02:30am 0.4 -2.0 -0.6 93 0.4 ENE 2 4 1 2 - - 0.0
09/02:20am 0.5 -2.3 -0.5 93 0.4 NE 4 6 2 3 - - 0.0
09/02:10am 0.6 -2.2 -0.7 91 0.5 NE 4 4 2 2 - - 0.0
09/02:00am 1.0 -2.2 -0.2 92 0.5 NE 6 6 3 3 - - 0.0
09/01:50am 1.3 -1.5 -0.6 87 0.7 NE 4 6 2 3 - - 0.0
09/01:40am 1.6 -1.5 0.1 90 0.6 NE 6 6 3 3 - - 0.0
09/01:30am 2.3 -0.8 0.2 86 0.8 ENE 6 6 3 3 - - 0.0
09/01:20am 2.5 -0.6 -0.1 83 1.0 ENE 6 7 3 4 - - 0.0
09/01:10am 2.9 -0.4 0.1 82 1.1 ENE 7 7 4 4 - - 0.0
09/01:00am 3.8 0.8 0.5 79 1.3 E 6 7 3 4 - - 0.0
09/12:50am 5.3 2.2 0.1 69 2.1 ESE 6 7 3 4 - - 0.0
09/12:40am 5.4 2.1 -0.1 67 2.2 E 7 7 4 4 - - 0.0
09/12:30am 5.5 2.2 0.4 70 2.1 E 7 9 4 5 - - 0.0
09/12:20am 5.9 1.8 -0.2 65 2.4 ESE 11 11 6 6 - - 0.0
09/12:10am 5.2 1.8 -0.6 66 2.3 ENE 7 9 4 5 - - 0.0
09/12:00am 5.6 2.4 0.6 70 2.0 E 7 9 4 5 - - 0.0
 
Date/Time
EDT
Temp
°C
App
Temp
°C
Dew
Point
°C
Rel
Hum
%
Delta-T
°C
Wind Press
QNH
hPa
Press
MSL
hPa
Rain since
9am
mm
Dir  Spd
km/h
Gust
km/h
Spd
kts
Gust
kts
08/11:50pm 6.3 2.5 -0.6 61 2.8 ESE 9 11 5 6 - - 0.0
08/11:40pm 5.0 0.9 -0.4 68 2.1 ENE 11 11 6 6 - - 0.0
08/11:30pm 6.6 2.9 0.2 63 2.6 E 9 9 5 5 - - 0.0
08/11:20pm 6.6 2.8 -0.7 59 2.9 ESE 9 13 5 7 - - 0.0
08/11:10pm 6.1 2.6 -1.2 59 2.9 E 7 9 4 5 - - 0.0
08/11:00pm 6.1 2.4 -0.1 64 2.5 E 9 9 5 5 - - 0.0
08/10:50pm 6.6 3.1 -1.2 57 3.1 - 7 9 4 5 - - 0.0
08/10:40pm 6.4 3.2 -0.4 62 2.7 E 6 7 3 4 - - 0.0
08/10:30pm 6.4 3.1 0.3 65 2.5 ENE 7 7 4 4 - - 0.0
08/10:20pm 8.2 5.5 0.1 56 3.4 SE 4 6 2 3 - - 0.0
08/10:10pm 9.0 5.7 -1.1 49 4.1 SSE 6 7 3 4 - - 0.0
08/10:00pm 9.3 5.5 -0.9 49 4.2 S 9 13 5 7 - - 0.0
08/09:50pm 9.7 5.9 -0.8 48 4.3 S 9 13 5 7 - - 0.0
08/09:40pm 10.1 5.9 -1.0 46 4.6 S 11 15 6 8 - - 0.0
08/09:30pm 10.6 6.0 -1.2 44 4.9 S 13 17 7 9 - - 0.0
08/09:20pm 10.9 5.9 -1.0 43 4.9 S 15 17 8 9 - - 0.0
08/09:10pm 10.7 6.9 -1.0 44 4.8 S 9 11 5 6 - - 0.0
08/09:00pm 10.7 7.2 -1.2 43 4.9 S 7 7 4 4 - - 0.0
08/08:50pm 10.8 7.0 -0.9 44 4.9 S 9 9 5 5 - - 0.0
08/08:40pm 11.2 7.4 -1.0 42 5.1 S 9 11 5 6 - - 0.0
08/08:30pm 11.4 8.0 -0.9 42 5.1 SSE 7 9 4 5 - - 0.0
08/08:20pm 11.7 8.5 -0.5 43 5.2 ESE 6 9 3 5 - - 0.0
08/08:10pm 12.2 9.5 0.5 44 5.1 ESE 4 6 2 3 - - 0.0
08/08:00pm 12.8 10.0 -0.5 40 5.7 SE 4 6 2 3 - - 0.0
08/07:50pm 13.1 9.7 -0.4 39 5.8 SE 7 9 4 5 - - 0.0
08/07:40pm 13.8 10.5 0.2 39 6.0 SE 7 11 4 6 - - 0.0
08/07:30pm 14.3 10.5 -0.8 35 6.5 S 9 13 5 7 - - 0.0
08/07:20pm 14.6 10.0 -0.9 34 6.7 SSW 13 15 7 8 - - 0.0
08/07:10pm 15.2 10.6 -1.0 33 7.0 SSW 13 17 7 9 - - 0.0
08/07:00pm 16.2 11.5 -1.8 29 7.7 SSW 13 15 7 8 - - 0.0
08/06:50pm 17.2 13.0 -1.1 28 8.0 W 11 13 6 7 - - 0.0
08/06:40pm 17.2 12.5 -2.0 27 8.3 W 13 17 7 9 - - 0.0
08/06:30pm 17.2 11.8 -1.5 28 8.1 WSW 17 20 9 11 - - 0.0
08/06:20pm 17.7 12.8 -0.8 28 8.2 WSW 15 19 8 10 - - 0.0
08/06:10pm 18.0 12.8 -2.4 25 8.8 SW 15 20 8 11 - - 0.0
08/06:00pm 18.3 13.2 -1.8 25 8.8 SW 15 19 8 10 - - 0.0
08/05:50pm 17.4 13.5 -1.8 27 8.3 SSW 9 11 5 6 - - 0.0
08/05:40pm 16.3 12.3 -2.5 27 7.9 SSW 9 13 5 7 - - 0.0
08/05:30pm 15.6 12.1 -1.4 31 7.3 SW 7 13 4 7 - - 0.0
08/05:20pm 15.4 10.6 -2.4 29 7.5 WSW 13 15 7 8 - - 0.0
08/05:10pm 15.8 10.2 -2.9 27 7.8 S 17 20 9 11 - - 0.0
08/05:00pm 16.5 11.3 -3.1 26 8.2 S 15 22 8 12 - - 0.0
08/04:50pm 17.8 13.6 -0.8 28 8.3 SSW 11 20 6 11 - - 0.0
08/04:40pm 18.8 13.9 -0.7 27 8.7 WSW 15 20 8 11 - - 0.0
08/04:30pm 19.0 13.6 -1.3 25 9.0 SW 17 24 9 13 - - 0.0
08/04:20pm 19.5 14.6 -0.7 25 9.1 SSW 15 24 8 13 - - 0.0
08/04:10pm 19.2 14.9 -1.5 24 9.2 SSW 11 19 6 10 - - 0.0
08/04:00pm 18.4 12.6 -1.2 26 8.7 SW 19 26 10 14 - - 0.0
08/03:50pm 16.7 11.1 -2.7 26 8.2 SW 17 24 9 13 - - 0.0
08/03:40pm 16.6 11.5 -1.8 28 7.9 SW 15 20 8 11 - - 0.0
08/03:30pm 17.9 12.1 -1.5 26 8.5 WSW 19 22 10 12 - - 0.0
08/03:20pm 17.6 12.3 -0.9 28 8.2 SW 17 20 9 11 - - 0.0
08/03:10pm 17.0 11.2 -1.7 28 8.1 SW 19 30 10 16 - - 0.0
08/03:00pm 18.5 12.9 -0.1 28 8.4 SW 19 22 10 12 - - 0.0
08/02:50pm 17.8 12.1 -1.0 28 8.3 SW 19 24 10 13 - - 0.0
08/02:40pm 18.0 11.3 -0.8 28 8.4 SW 24 28 13 15 - - 0.0
08/02:30pm 17.0 11.6 -1.5 28 8.0 WSW 17 24 9 13 - - 0.0
08/02:20pm 17.2 11.5 -0.4 30 7.8 SSW 19 22 10 12 - - 0.0
08/02:10pm 16.1 10.0 -2.0 29 7.7 SSW 20 26 11 14 - - 0.0
08/02:00pm 15.7 9.7 -1.7 30 7.4 SSW 20 26 11 14 - - 0.0
08/01:50pm 16.4 9.6 -1.8 28 7.8 SW 24 30 13 16 - - 0.0
08/01:40pm 17.6 11.0 -0.7 29 8.1 SW 24 32 13 17 - - 0.0
08/01:30pm 18.8 12.2 -0.5 27 8.7 WSW 24 35 13 19 - - 0.0
08/01:20pm 18.1 12.0 0.2 30 8.1 W 22 28 12 15 - - 0.0
08/01:10pm 18.0 11.8 -0.4 29 8.2 WSW 22 32 12 17 - - 0.0
08/01:00pm 18.0 11.6 -1.6 26 8.6 SW 22 28 12 15 - - 0.0
08/12:50pm 18.0 12.2 -0.4 29 8.2 SW 20 26 11 14 - - 0.0
08/12:40pm 18.0 12.0 -1.6 26 8.6 SW 20 26 11 14 - - 0.0
08/12:30pm 18.0 12.1 -0.8 28 8.4 WSW 20 32 11 17 - - 0.0
08/12:20pm 17.6 10.9 -0.9 28 8.2 WSW 24 30 13 16 - - 0.0
08/12:10pm 17.5 11.1 -2.0 26 8.4 W 22 30 12 16 - - 0.0
08/12:00pm 17.0 9.9 -1.6 28 8.1 SW 26 35 14 19 - - 0.0
08/11:50am 16.7 8.7 -2.2 27 8.1 WSW 30 37 16 20 - - 0.0
08/11:40am 16.6 8.9 -2.6 26 8.1 WSW 28 33 15 18 - - 0.0
08/11:30am 16.3 8.7 -2.1 28 7.8 WSW 28 32 15 17 - - 0.0
08/11:20am 16.7 9.9 -1.9 28 8.0 SW 24 30 13 16 - - 0.0
08/11:10am 16.1 9.3 -2.2 28 7.8 WSW 24 33 13 18 - - 0.0
08/11:00am 15.9 8.3 -2.1 29 7.6 WSW 28 33 15 18 - - 0.0
08/10:50am 16.1 8.9 -2.4 28 7.8 W 26 32 14 17 - - 0.0
08/10:40am 14.6 9.7 -0.8 34 6.6 W 15 22 8 12 - - 0.0
08/10:30am 14.7 10.5 1.4 40 6.0 W 13 17 7 9 - - 0.0
08/10:20am 15.4 10.9 2.2 41 6.1 W 15 20 8 11 - - 0.0
08/10:10am 14.3 9.7 1.8 42 5.7 W 15 19 8 10 - - 0.0
08/10:00am 14.5 10.0 2.3 43 5.6 WSW 15 20 8 11 - - 0.0
08/09:50am 14.7 10.0 3.4 46 5.3 NW 17 20 9 11 - - 0.0
08/09:40am 14.0 9.7 3.4 49 5.0 WNW 15 20 8 11 - - 0.0
08/09:30am 13.8 8.6 2.5 46 5.2 WNW 19 26 10 14 - - 0.0
08/09:20am 13.4 8.2 3.4 50 4.7 W 20 24 11 13 - - 0.0
08/09:10am 13.3 8.0 2.9 49 4.8 W 20 26 11 14 - - 0.0
08/09:00am 13.1 7.5 3.5 52 4.5 W 22 28 12 15 - - 0.0
08/08:50am 12.7 7.7 3.6 54 4.2 W 19 22 10 12 - - 0.0
08/08:40am 12.0 7.0 3.6 56 3.9 WNW 19 24 10 13 - - 0.0
08/08:30am 11.6 6.3 3.1 56 3.9 NW 20 26 11 14 - - 0.0
08/08:20am 12.6 7.5 2.8 51 4.5 WNW 19 22 10 12 - - 0.0
08/08:10am 12.5 6.6 1.7 47 4.8 W 22 28 12 15 - - 0.0
08/08:00am 12.3 5.9 0.7 45 5.1 W 24 26 13 14 - - 0.0
08/07:50am 12.4 6.8 1.3 46 4.9 W 20 26 11 14 - - 0.0
08/07:40am 12.1 6.5 1.5 48 4.7 W 20 24 11 13 - - 0.0
08/07:30am 11.8 6.3 1.8 50 4.5 W 20 26 11 14 - - 0.0
08/07:20am 11.6 6.1 1.6 50 4.4 W 20 22 11 12 - - 0.0
08/07:10am 11.4 6.1 2.1 53 4.2 W 19 22 10 12 - - 0.0
08/07:00am 11.0 5.5 1.9 53 4.0 W 20 24 11 13 - - 0.0
08/06:50am 10.7 4.8 2.0 55 3.9 W 22 22 12 12 - - 0.0
08/06:40am 10.3 4.8 1.8 55 3.7 W 20 24 11 13 - - 0.0
08/06:30am 9.9 4.0 2.0 58 3.5 W 22 24 12 13 - - 0.0
08/06:20am 9.5 3.6 1.8 58 3.4 W 22 24 12 13 - - 0.0
08/06:10am 9.0 3.5 1.8 60 3.1 W 20 20 11 11 - - 0.0
08/06:00am 9.2 3.7 1.8 60 3.2 W 20 24 11 13 - - 0.0
08/05:50am 9.2 3.7 1.6 59 3.3 W 20 22 11 12 - - 0.0
08/05:40am 9.2 4.3 1.7 59 3.3 W 17 19 9 10 - - 0.0
08/05:30am 9.3 5.1 1.5 58 3.4 W 13 17 7 9 - - 0.0
08/05:20am 9.9 5.6 1.3 55 3.7 WSW 13 15 7 8 - - 0.0
08/05:10am 10.2 5.6 1.7 55 3.7 WSW 15 22 8 12 - - 0.0
08/05:00am 10.2 5.0 2.2 57 3.5 W 19 24 10 13 - - 0.0
08/04:50am 10.2 5.0 2.2 57 3.5 W 19 26 10 14 - - 0.0
08/04:40am 9.9 5.9 2.7 61 3.2 W 13 15 7 8 - - 0.0
08/04:30am 10.4 7.2 3.2 61 3.3 W 9 13 5 7 - - 0.0
08/04:20am 11.1 7.6 3.4 59 3.5 W 11 15 6 8 - - 0.0
08/04:10am 11.4 7.1 3.5 58 3.6 W 15 20 8 11 - - 0.0
08/04:00am 11.7 7.1 3.7 58 3.7 W 17 20 9 11 - - 0.0
08/03:50am 11.7 7.2 4.0 59 3.6 WNW 17 19 9 10 - - 0.0
08/03:40am 11.9 7.2 5.3 64 3.2 WNW 19 22 10 12 - - 0.0
08/03:30am 12.1 7.6 6.0 66 3.0 WNW 19 24 10 13 - - 0.0
08/03:20am 12.2 7.8 6.5 68 2.8 WNW 19 20 10 11 - - 0.0
08/03:10am 12.0 8.9 7.1 72 2.5 WNW 13 15 7 8 - - 0.0
08/03:00am 12.2 9.2 7.7 74 2.3 WNW 13 13 7 7 - - 0.0
08/02:50am 12.5 10.1 8.5 76 2.1 WNW 11 15 6 8 - - 0.0
08/02:40am 12.7 10.6 9.6 81 1.6 WNW 11 13 6 7 - - 0.0
08/02:30am 12.8 10.4 9.9 82 1.5 WNW 13 17 7 9 - - 0.0
08/02:20am 13.0 10.3 10.2 83 1.5 NW 15 17 8 9 - - 0.0
08/02:10am 13.0 11.0 10.3 84 1.5 WNW 11 15 6 8 - - 0.0
08/02:00am 13.2 11.3 10.6 84 1.4 WNW 11 15 6 8 - - 0.0
08/01:50am 13.3 11.1 10.8 85 1.4 WNW 13 17 7 9 - - 0.0
08/01:40am 13.4 11.3 11.0 85 1.3 WNW 13 15 7 8 - - 0.0
08/01:30am 13.7 11.2 11.1 84 1.4 NW 15 19 8 10 - - 0.0
08/01:20am 13.7 10.9 11.2 85 1.4 WNW 17 22 9 12 - - 0.0
08/01:10am 13.7 11.3 11.3 85 1.3 NW 15 22 8 12 - - 0.0
08/01:00am 13.7 11.4 11.6 87 1.2 NW 15 19 8 10 - - 0.0
08/12:50am 13.9 11.6 11.9 88 1.1 NW 15 19 8 10 - - 0.0
08/12:40am 14.2 11.9 11.9 86 1.3 WNW 15 19 8 10 - - 0.0
08/12:30am 14.3 11.7 12.1 87 1.2 WNW 17 24 9 13 - - 0.0
08/12:20am 14.4 11.4 12.1 86 1.3 WNW 19 22 10 12 - - 0.0
08/12:10am 14.5 11.5 12.0 85 1.4 WNW 19 24 10 13 - - 0.0
08/12:00am 14.6 11.1 12.1 85 1.4 NW 22 24 12 13 - - 0.0
 
Date/Time
EDT
Temp
°C
App
Temp
°C
Dew
Point
°C
Rel
Hum
%
Delta-T
°C
Wind Press
QNH
hPa
Press
MSL
hPa
Rain since
9am
mm
Dir  Spd
km/h
Gust
km/h
Spd
kts
Gust
kts
07/11:50pm 14.5 11.5 12.0 85 1.4 NW 19 26 10 14 - - 0.0
07/11:40pm 13.8 11.8 11.5 86 1.3 W 13 19 7 10 - - 0.0
07/11:30pm 13.5 10.1 11.4 87 1.2 WSW 20 30 11 16 - - 0.0
07/11:20pm 14.3 11.7 11.9 85 1.3 N 17 22 9 12 - - 0.0
07/11:10pm 14.3 13.8 11.9 85 1.3 N 6 11 3 6 - - 0.0
07/11:00pm 14.3 13.2 11.9 85 1.3 NW 9 17 5 9 - - 0.0
07/10:50pm 14.2 12.4 12.0 87 1.2 NNW 13 15 7 8 - - 0.0
07/10:40pm 14.2 12.4 12.0 87 1.2 NW 13 15 7 8 - - 0.0
07/10:30pm 14.2 12.0 12.0 87 1.2 NW 15 19 8 10 - - 0.0
07/10:20pm 14.2 12.0 12.0 87 1.2 NW 15 17 8 9 - - 0.0
07/10:10pm 14.3 12.8 12.0 86 1.3 NW 11 20 6 11 - - 0.0
07/10:00pm 14.4 12.5 11.8 84 1.5 NW 13 17 7 9 - - 0.0
07/09:50pm 14.4 12.8 11.7 84 1.5 NW 11 20 6 11 - - 0.0
07/09:40pm 14.4 12.1 11.6 83 1.6 NW 15 19 8 10 - - 0.0
07/09:30pm 14.4 11.6 11.3 81 1.7 WNW 17 20 9 11 - - 0.0
07/09:20pm 14.3 12.2 11.2 81 1.7 NW 13 20 7 11 - - 0.0
07/09:10pm 14.4 11.9 11.1 80 1.8 NW 15 19 8 10 - - 0.0
07/09:00pm 14.5 11.6 10.9 79 2.0 NW 17 22 9 12 - - 0.0
07/08:50pm 14.5 11.1 10.4 76 2.2 NW 19 22 10 12 - - 0.0
07/08:40pm 14.7 10.9 9.7 72 2.7 NNW 20 26 11 14 - - 0.0
07/08:30pm 14.9 11.1 9.0 68 3.1 NNW 19 26 10 14 - - 0.0
07/08:20pm 15.2 11.3 8.6 64 3.5 NNW 19 22 10 12 - - 0.0
07/08:10pm 15.6 11.3 8.0 60 4.0 NNW 20 24 11 13 - - 0.0
07/08:00pm 16.0 11.9 7.8 58 4.3 NNW 19 22 10 12 - - 0.0
07/07:50pm 16.7 12.4 7.1 53 5.0 NNW 19 22 10 12 - - 0.0
07/07:40pm 17.3 11.8 6.0 47 5.7 NW 24 28 13 15 - - 0.0
07/07:30pm 17.6 12.5 6.1 47 5.9 NW 22 28 12 15 - - 0.0

Latest Capital City Observations: Canberra | Sydney | Melbourne | Brisbane | Adelaide | Perth | Hobart | Darwin

Other formats

Comma delimited format used in spreadsheet applications
http://www.bom.gov.au/fwo/IDN60903/IDN60903.99764.axf

JavaScript Object Notation format (JSON) in row-major order
http://www.bom.gov.au/fwo/IDN60903/IDN60903.99764.json

Data quality

Most of these data are generated automatically and are frequently updated. Quality checks on data are not normally performed. It is possible for incorrect values to appear. Refer to information at About Latest Weather Observations and please check the disclaimer before using these data.